createdAt,value
2022-08-07T00:03:26.687Z,100092.34
2022-08-07T00:07:01.354Z,100088.31
2022-08-07T00:10:30.401Z,100091.47
2022-08-07T00:13:52.675Z,100089.53
2022-08-07T00:17:16.625Z,100094.75
2022-08-07T00:20:37.678Z,100080.13
2022-08-07T00:23:59.639Z,100088.00
2022-08-07T00:27:20.648Z,100086.88
2022-08-07T00:30:43.635Z,100079.09
2022-08-07T00:34:04.667Z,100090.06
2022-08-07T00:37:41.486Z,100084.69
2022-08-07T00:41:09.778Z,100075.59
2022-08-07T00:44:34.670Z,100083.56
2022-08-07T00:48:07.838Z,100086.22
2022-08-07T00:51:24.699Z,100079.78
2022-08-07T00:55:10.635Z,100082.28
2022-08-07T00:58:32.726Z,100080.69
2022-08-07T01:01:53.722Z,100075.88
2022-08-07T01:05:18.740Z,100078.72
2022-08-07T01:08:43.149Z,100080.03
2022-08-07T01:12:29.733Z,100085.34
2022-08-07T01:16:00.639Z,100079.47
2022-08-07T01:19:25.705Z,100079.47
2022-08-07T01:23:00.814Z,100088.69
2022-08-07T01:26:29.661Z,100091.31
2022-08-07T01:29:50.860Z,100091.00
2022-08-07T01:33:12.659Z,100087.22
2022-08-07T01:36:36.399Z,100086.63
2022-08-07T01:40:06.700Z,100075.97
2022-08-07T01:43:43.777Z,100089.19
2022-08-07T01:48:16.589Z,100092.28
2022-08-07T01:50:49.669Z,100077.72
2022-08-07T01:54:32.705Z,100086.69
2022-08-07T01:58:06.683Z,100085.88
2022-08-07T02:01:59.931Z,100084.25
2022-08-07T02:05:43.427Z,100082.69
2022-08-07T02:09:33.433Z,100087.97
2022-08-07T02:12:57.675Z,100078.97
2022-08-07T02:16:33.917Z,100074.13
2022-08-07T02:20:04.403Z,100065.13
2022-08-07T02:23:30.719Z,100067.66
2022-08-07T02:26:56.717Z,100069.91
2022-08-07T02:30:21.688Z,100064.38
2022-08-07T02:34:02.912Z,100063.91
2022-08-07T02:37:36.190Z,100068.72
2022-08-07T02:41:05.715Z,100061.34
2022-08-07T02:44:34.679Z,100068.00
2022-08-07T02:48:01.557Z,100067.75
2022-08-07T02:51:42.073Z,100064.91
2022-08-07T02:55:27.967Z,100077.78
2022-08-07T02:58:55.215Z,100079.22
2022-08-07T03:02:19.765Z,100068.72
2022-08-07T03:05:42.741Z,100075.94
2022-08-07T03:09:04.686Z,100079.81
2022-08-07T03:12:30.863Z,100077.25
2022-08-07T03:15:58.681Z,100067.75
2022-08-07T03:19:19.971Z,100080.06
2022-08-07T03:22:42.707Z,100082.25
2022-08-07T03:26:21.031Z,100075.16
2022-08-07T03:29:58.690Z,100075.56
2022-08-07T03:33:23.675Z,100069.88
2022-08-07T03:36:53.903Z,100075.03
2022-08-07T03:40:15.950Z,100074.28
2022-08-07T03:43:37.696Z,100077.56
2022-08-07T03:47:13.078Z,100068.63
2022-08-07T03:50:36.727Z,100071.69
2022-08-07T03:54:15.149Z,100067.25
2022-08-07T03:58:32.612Z,100071.06
2022-08-07T04:01:27.743Z,100074.41
2022-08-07T04:04:48.735Z,100068.69
2022-08-07T04:08:11.019Z,100066.41
2022-08-07T04:12:23.561Z,100075.28
2022-08-07T04:15:12.755Z,100070.09
2022-08-07T04:18:59.002Z,100066.72
2022-08-07T04:22:17.925Z,100072.34
2022-08-07T04:25:40.887Z,100067.91
2022-08-07T04:29:03.101Z,100068.81
2022-08-07T04:32:34.063Z,100074.25
2022-08-07T04:35:58.753Z,100067.97
2022-08-07T04:39:24.073Z,100078.69
2022-08-07T04:42:52.326Z,100079.59
2022-08-07T04:46:25.998Z,100076.72
2022-08-07T04:50:12.734Z,100073.34
2022-08-07T04:54:06.004Z,100073.16
2022-08-07T04:58:11.258Z,100077.53
2022-08-07T05:01:22.755Z,100066.94
2022-08-07T05:04:59.785Z,100074.75
2022-08-07T05:08:59.650Z,100080.13
2022-08-07T05:12:27.334Z,100085.25
2022-08-07T05:15:53.810Z,100080.00
2022-08-07T05:19:20.773Z,100073.91
2022-08-07T05:22:57.722Z,100077.94
2022-08-07T05:26:24.631Z,100074.25
2022-08-07T05:29:53.740Z,100078.00
2022-08-07T05:33:15.760Z,100076.47
2022-08-07T05:36:39.748Z,100067.94
2022-08-07T05:40:17.992Z,100075.41
2022-08-07T05:43:49.841Z,100076.19
2022-08-07T05:47:37.931Z,100077.47
2022-08-07T05:51:03.774Z,100073.66
2022-08-07T05:54:30.905Z,100075.41
2022-08-07T05:58:06.790Z,100075.50
2022-08-07T06:01:35.808Z,100068.28
2022-08-07T06:05:04.770Z,100067.84
2022-08-07T06:08:31.533Z,100078.50
2022-08-07T06:11:52.769Z,100075.63
2022-08-07T06:15:15.952Z,100075.56
2022-08-07T06:18:37.777Z,100072.13
2022-08-07T06:22:15.241Z,100074.91
2022-08-07T06:25:54.527Z,100078.94
2022-08-07T06:29:17.762Z,100083.88
2022-08-07T06:32:38.800Z,100087.88
2022-08-07T06:36:11.915Z,100081.00
2022-08-07T06:40:17.060Z,100081.78
2022-08-07T06:43:23.830Z,100081.53
2022-08-07T06:47:12.343Z,100085.19
2022-08-07T06:50:27.874Z,100095.19
2022-08-07T06:55:29.607Z,100086.34
2022-08-07T06:57:43.520Z,100098.25
2022-08-07T07:01:12.849Z,100089.09
2022-08-07T07:04:34.901Z,100100.19
2022-08-07T07:08:00.331Z,100117.75
2022-08-07T07:12:10.750Z,100124.47
2022-08-07T07:15:08.586Z,100114.84
2022-08-07T07:18:47.439Z,100095.97
2022-08-07T07:22:34.155Z,100107.41
2022-08-07T07:26:33.330Z,100120.66
2022-08-07T07:30:09.056Z,100111.97
2022-08-07T07:33:23.818Z,100109.72
2022-08-07T07:36:52.734Z,100099.22
2022-08-07T07:40:18.874Z,100096.75
2022-08-07T07:44:13.827Z,100100.31
2022-08-07T07:47:43.033Z,100095.09
2022-08-07T07:51:02.044Z,100096.22
2022-08-07T07:54:25.823Z,100094.38
2022-08-07T07:57:52.808Z,100091.97
2022-08-07T08:02:03.110Z,100093.56
2022-08-07T08:04:51.916Z,100092.09
2022-08-07T08:08:35.554Z,100089.38
2022-08-07T08:12:02.430Z,100087.81
2022-08-07T08:15:24.810Z,100097.69
2022-08-07T08:18:50.531Z,100080.00
2022-08-07T08:22:32.672Z,100083.44
2022-08-07T08:26:12.785Z,100078.88
2022-08-07T08:29:33.781Z,100080.38
2022-08-07T08:33:23.097Z,100077.91
2022-08-07T08:36:46.815Z,100082.06
2022-08-07T08:40:23.424Z,100071.97
2022-08-07T08:43:59.799Z,100069.56
2022-08-07T08:47:31.053Z,100065.88
2022-08-07T08:51:26.272Z,100052.03
2022-08-07T08:55:55.183Z,100060.47
2022-08-07T08:59:16.373Z,100054.41
2022-08-07T09:02:52.604Z,100047.50
2022-08-07T09:06:40.407Z,100037.25
2022-08-07T09:10:28.824Z,100046.63
2022-08-07T09:14:07.896Z,100042.19
2022-08-07T09:18:00.369Z,100039.09
2022-08-07T09:22:22.473Z,100027.63
2022-08-07T09:25:26.819Z,100027.00
2022-08-07T09:30:06.000Z,100026.50
2022-08-07T09:32:52.912Z,100021.47
2022-08-07T09:36:37.192Z,100016.50
2022-08-07T09:40:28.874Z,100007.22
2022-08-07T09:44:19.202Z,100011.47
2022-08-07T09:48:45.320Z,100000.31
2022-08-07T09:52:39.896Z,100003.34
2022-08-07T09:56:46.362Z,100005.22
2022-08-07T10:00:29.833Z,99992.06
2022-08-07T10:04:32.657Z,99992.59
2022-08-07T10:08:25.915Z,99996.75
2022-08-07T10:12:21.937Z,99993.47
2022-08-07T10:16:07.867Z,99992.41
2022-08-07T10:19:56.880Z,99986.13
2022-08-07T10:24:05.346Z,99988.47
2022-08-07T10:27:45.993Z,99993.84
2022-08-07T10:31:39.295Z,99995.91
2022-08-07T10:35:20.539Z,99999.91
2022-08-07T10:39:01.898Z,99990.25
2022-08-07T10:42:31.247Z,99993.31
2022-08-07T10:46:02.858Z,99987.06
2022-08-07T10:49:51.968Z,99978.91
2022-08-07T10:53:12.887Z,99974.41
2022-08-07T10:57:16.891Z,99975.75
2022-08-07T11:01:17.914Z,99954.59
2022-08-07T11:05:08.608Z,99958.69
2022-08-07T11:09:11.247Z,99956.09
2022-08-07T11:12:37.864Z,99957.84
2022-08-07T11:15:55.871Z,99955.94
2022-08-07T11:19:29.918Z,99953.56
2022-08-07T11:23:02.875Z,99960.53
2022-08-07T11:26:48.100Z,99951.81
2022-08-07T11:30:41.447Z,99952.91
2022-08-07T11:34:32.847Z,99949.28
2022-08-07T11:38:12.530Z,99947.00
2022-08-07T11:42:01.772Z,99946.38
2022-08-07T11:45:53.276Z,99983.47
2022-08-07T11:50:18.499Z,99989.25
2022-08-07T11:53:29.896Z,100008.78
2022-08-07T11:57:59.686Z,100001.50
2022-08-07T12:01:29.482Z,99997.13
2022-08-07T12:05:48.851Z,99999.25
2022-08-07T12:09:51.911Z,100002.81
2022-08-07T12:13:35.583Z,100009.84
2022-08-07T12:17:26.972Z,100015.59
2022-08-07T12:22:37.218Z,100023.03
2022-08-07T12:26:23.028Z,100017.38
2022-08-07T12:29:51.752Z,100033.91
2022-08-07T12:33:28.550Z,100042.19
2022-08-07T12:36:59.877Z,100064.34
2022-08-07T12:40:46.241Z,100057.19
2022-08-07T12:44:05.917Z,100075.25
2022-08-07T12:47:58.903Z,100086.38
2022-08-07T12:51:33.461Z,100101.44
2022-08-07T12:55:17.689Z,100108.28
2022-08-07T12:58:43.884Z,100101.41
2022-08-07T13:02:36.907Z,100097.06
2022-08-07T13:06:27.806Z,100101.47
2022-08-07T13:10:37.113Z,100105.59
2022-08-07T13:14:35.887Z,100112.19
2022-08-07T13:18:26.408Z,100115.41
2022-08-07T13:22:02.047Z,100117.56
2022-08-07T13:25:50.565Z,100131.19
2022-08-07T13:29:17.900Z,100132.00
2022-08-07T13:32:59.934Z,100137.88
2022-08-07T13:36:39.843Z,100129.56
2022-08-07T13:40:36.792Z,100110.84
2022-08-07T13:43:57.942Z,100115.09
2022-08-07T13:47:25.403Z,100129.53
2022-08-07T13:51:01.827Z,100128.72
2022-08-07T13:54:25.902Z,100125.88
2022-08-07T13:57:59.144Z,100111.78
2022-08-07T14:01:27.904Z,100107.06
2022-08-07T14:05:17.979Z,100123.84
2022-08-07T14:08:39.908Z,100119.88
2022-08-07T14:12:12.955Z,100121.13
2022-08-07T14:15:50.538Z,100145.31
2022-08-07T14:19:17.832Z,100127.72
2022-08-07T14:23:06.485Z,100113.28
2022-08-07T14:26:50.550Z,100122.63
2022-08-07T14:30:33.102Z,100110.88
2022-08-07T14:33:54.923Z,100110.09
2022-08-07T14:37:23.758Z,100122.34
2022-08-07T14:40:57.957Z,100107.94
2022-08-07T14:44:22.922Z,100107.44
2022-08-07T14:47:47.058Z,100112.16
2022-08-07T14:51:16.116Z,100119.69
2022-08-07T14:54:43.278Z,100118.63
2022-08-07T14:58:05.139Z,100132.00
2022-08-07T15:01:27.936Z,100123.16
2022-08-07T15:05:04.927Z,100115.41
2022-08-07T15:08:50.094Z,100110.75
2022-08-07T15:12:25.957Z,100121.00
2022-08-07T15:15:58.919Z,100109.22
2022-08-07T15:23:16.968Z,100126.13
2022-08-07T15:26:53.927Z,100125.25
2022-08-07T15:30:21.946Z,100134.41
2022-08-07T15:33:53.071Z,100145.75
2022-08-07T15:37:27.538Z,100151.13
2022-08-07T15:41:22.875Z,100163.50
2022-08-07T15:44:35.973Z,100155.47
2022-08-07T15:48:06.977Z,100138.94
2022-08-07T15:55:21.023Z,100120.72
2022-08-07T15:59:16.429Z,100131.06
2022-08-07T16:02:46.775Z,100123.81
2022-08-07T16:06:07.926Z,100111.53
2022-08-07T16:09:42.251Z,100115.72
2022-08-07T16:13:58.000Z,100118.88
2022-08-07T16:18:01.274Z,100116.88
2022-08-07T16:22:04.094Z,100122.03
2022-08-07T16:25:54.099Z,100129.00
2022-08-07T16:30:11.067Z,100145.38
2022-08-07T16:34:02.720Z,100160.69
2022-08-07T16:38:03.655Z,100167.56
2022-08-07T16:41:41.773Z,100177.06
2022-08-07T16:46:33.172Z,100182.63
2022-08-07T16:50:20.777Z,100193.66
2022-08-07T16:54:01.738Z,100201.19
2022-08-07T16:56:59.971Z,100195.72
2022-08-07T17:00:29.451Z,100192.41
2022-08-07T17:04:09.974Z,100191.78
2022-08-07T17:07:55.533Z,100207.09
2022-08-07T17:12:04.524Z,100202.69
2022-08-07T17:16:01.053Z,100209.50
2022-08-07T17:20:03.154Z,100210.44
2022-08-07T17:23:36.002Z,100215.66
2022-08-07T17:27:10.007Z,100213.72
2022-08-07T17:30:58.020Z,100213.88
2022-08-07T17:34:34.579Z,100216.22
2022-08-07T17:38:11.530Z,100225.97
2022-08-07T17:42:20.017Z,100234.66
2022-08-07T17:45:52.954Z,100236.09
2022-08-07T17:49:39.354Z,100233.63
2022-08-07T17:54:00.934Z,100229.81
2022-08-07T17:57:56.441Z,100239.88
2022-08-07T18:01:20.855Z,100243.59
2022-08-07T18:04:44.966Z,100238.72
2022-08-07T18:08:27.975Z,100239.47
2022-08-07T18:12:18.100Z,100235.19
2022-08-07T18:16:01.975Z,100235.69
2022-08-07T18:21:08.667Z,100237.53
2022-08-07T18:23:43.320Z,100235.91
2022-08-07T18:27:51.019Z,100243.63
2022-08-07T18:31:26.036Z,100244.44
2022-08-07T18:35:17.018Z,100252.94
2022-08-07T18:40:05.251Z,100250.53
2022-08-07T18:43:18.986Z,100265.88
2022-08-07T18:47:24.009Z,100272.50
2022-08-07T18:52:38.702Z,100263.97
2022-08-07T18:55:41.845Z,100265.13
2022-08-07T18:59:58.940Z,100265.91
2022-08-07T19:03:37.855Z,100262.69
2022-08-07T19:06:59.029Z,100264.75
2022-08-07T19:10:23.023Z,100275.03
2022-08-07T19:14:20.588Z,100276.34
2022-08-07T19:18:03.577Z,100287.66
2022-08-07T19:21:44.039Z,100283.78
2022-08-07T19:25:12.055Z,100279.63
2022-08-07T19:30:56.948Z,100285.31
2022-08-07T19:32:59.813Z,100279.91
2022-08-07T19:36:27.937Z,100278.28
2022-08-07T19:39:58.017Z,100279.56
2022-08-07T19:43:48.606Z,100284.06
2022-08-07T19:47:18.089Z,100284.88
2022-08-07T19:50:53.197Z,100287.97
2022-08-07T19:54:29.525Z,100287.97
2022-08-07T19:58:13.470Z,100285.31
2022-08-07T20:01:56.074Z,100282.69
2022-08-07T20:05:20.016Z,100275.06
2022-08-07T20:08:50.365Z,100276.19
2022-08-07T20:12:31.748Z,100272.38
2022-08-07T20:15:54.021Z,100287.09
2022-08-07T20:19:18.107Z,100282.72
2022-08-07T20:22:44.036Z,100280.97
2022-08-07T20:26:10.008Z,100289.72
2022-08-07T20:29:48.965Z,100292.38
2022-08-07T20:33:36.311Z,100289.06
2022-08-07T20:37:01.054Z,100283.78
2022-08-07T20:40:33.367Z,100286.69
2022-08-07T20:43:57.413Z,100289.66
2022-08-07T20:47:25.197Z,100287.03
2022-08-07T20:50:47.074Z,100293.81
2022-08-07T20:54:09.427Z,100282.69
2022-08-07T20:57:37.068Z,100281.91
2022-08-07T21:01:07.057Z,100267.59
2022-08-07T21:04:43.075Z,100264.63
2022-08-07T21:08:09.036Z,100274.88
2022-08-07T21:11:46.219Z,100282.38
2022-08-07T21:15:18.886Z,100285.34
2022-08-07T21:18:46.175Z,100283.84
2022-08-07T21:22:08.124Z,100274.50
2022-08-07T21:26:07.079Z,100262.91
2022-08-07T21:30:04.074Z,100254.59
2022-08-07T21:33:38.303Z,100276.13
2022-08-07T21:37:13.099Z,100284.28
2022-08-07T21:40:57.094Z,100292.81
2022-08-07T21:44:28.288Z,100283.84
2022-08-07T21:47:59.075Z,100275.09
2022-08-07T21:51:51.156Z,100283.84
2022-08-07T21:55:32.091Z,100287.97
2022-08-07T21:59:11.078Z,100287.97
2022-08-07T22:03:06.306Z,100305.25
2022-08-07T22:06:34.059Z,100308.34
2022-08-07T22:09:59.091Z,100308.81
2022-08-07T22:13:52.442Z,100306.50
2022-08-07T22:17:12.115Z,100313.19
2022-08-07T22:20:40.076Z,100314.56
2022-08-07T22:24:14.076Z,100309.84
2022-08-07T22:28:07.871Z,100317.34
2022-08-07T22:32:05.401Z,100315.03
2022-08-07T22:35:39.718Z,100319.06
2022-08-07T22:39:07.123Z,100316.97
2022-08-07T22:42:35.115Z,100313.75
2022-08-07T22:46:47.091Z,100309.16
2022-08-07T22:50:29.010Z,100311.47
2022-08-07T22:54:32.748Z,100317.19
2022-08-07T22:58:16.077Z,100312.81
2022-08-07T23:01:59.243Z,100311.06
2022-08-07T23:06:08.767Z,100301.75
2022-08-07T23:10:00.624Z,100314.63
2022-08-07T23:13:49.063Z,100322.78
2022-08-07T23:17:32.138Z,100321.16
2022-08-07T23:21:12.099Z,100323.44
2022-08-07T23:25:01.121Z,100331.84
2022-08-07T23:28:35.103Z,100319.88
2022-08-07T23:34:23.754Z,100332.28
2022-08-07T23:36:34.090Z,100324.81
2022-08-07T23:40:23.090Z,100336.41
2022-08-07T23:44:13.155Z,100322.41
2022-08-07T23:48:02.577Z,100326.06
2022-08-07T23:53:00.712Z,100321.47
2022-08-07T23:55:51.996Z,100320.88
